Flight Track Log - Related Links

Times and Time Zones

All times are in EDT time to prevent confusion due to time zone crossing. See the N400PU flight status page for this flight to view local times or setup timezone preferences in your user account.

Time Position Orientation Groundspeed Altitude Reporting Facility
EDT Latitude Longitude Course Direction KTS MPH feet Rate Location/Type
Fri 01:54:36 PM 41.7653 -70.2942 290° West 225 259 4,100  Level Boston Center
Fri 01:55:34 PM 41.8225 -70.2336 38° Northeast 244 281 6,600 2,542 Climbing Boston Center
Fri 01:56:34 PM 41.8858 -70.1731 35° Northeast 261 300 9,100 2,281 Climbing Boston Center
Fri 01:57:35 PM 41.9533 -70.1036 37° Northeast 282 325 11,200 1,869 Climbing Boston Center
Fri 01:58:00 PM 42.0476 -70.1839 287° West  Level FlightAware Approximate
Fri 01:58:36 PM 42.0433 -70.1253 350° North 273 314 12,900  Level Boston Center
Fri 01:59:00 PM 42.0826 -70.3143 294° West  Level FlightAware Approximate
Fri 01:59:36 PM 42.0728 -70.2444 288° West 238 274 14,900  Level Boston Center
Fri 02:00:00 PM 42.1205 -70.4433 290° West  Level FlightAware Approximate
Fri 02:00:34 PM 42.1019 -70.3611 289° West 278 320 16,900  Level Boston Center
Fri 02:01:35 PM 42.1311 -70.4775 289° West 313 360 18,500 1,623 Climbing Boston Center
Fri 02:02:36 PM 42.1558 -70.5806 288° West 323 372 20,200 1,438 Climbing Boston Center
Fri 02:03:36 PM 42.1850 -70.7028 288° West 328 377 21,400 1,200 Climbing Boston Center
Fri 02:04:36 PM 42.2325 -70.8194 299° West 345 397 22,600 1,271 Climbing Boston Center
Fri 02:05:34 PM 42.3297 -70.9150 324° Northwest 361 415 23,900 1,220 Climbing Boston Center
Fri 02:06:34 PM 42.4225 -70.9917 329° Northwest 377 434 25,000 992 Climbing Boston Center
Fri 02:07:35 PM 42.5003 -71.0544 329° Northwest 390 449 25,900 1,140 Climbing Boston Center
Fri 02:08:35 PM 42.6203 -71.1592 327° Northwest 415 478 27,300 1,250 Climbing Boston Center
Fri 02:09:35 PM 42.7214 -71.2447 328° Northwest 423 487 28,400 1,091 Climbing Boston Center
Fri 02:10:36 PM 42.8203 -71.3361 326° Northwest 428 493 29,500 1,091 Climbing Boston Center
Fri 02:11:36 PM 42.8714 -71.4711 297° West 397 457 30,600 1,041 Climbing Boston Center
Fri 02:12:37 PM 42.8869 -71.5928 280° West 372 428 31,600 1,017 Climbing Boston Center
Fri 02:13:34 PM 42.8964 -71.7372 275° West 372 428 32,600 966 Climbing Boston Center
Fri 02:14:35 PM 42.9056 -71.8789 275° West 377 434 33,500 843 Climbing Boston Center
Fri 02:15:35 PM 42.9164 -72.0233 276° West 382 440 34,300 900 Climbing Boston Center
Fri 02:16:35 PM 42.9272 -72.1678 276° West 387 445 35,300 1,008 Climbing Boston Center
Fri 02:17:34 PM 42.9400 -72.3294 276° West 387 445 36,300 958 Climbing Boston Center
Fri 02:18:34 PM 42.9506 -72.4742 276° West 387 445 37,200 689 Climbing Boston Center
Fri 02:19:36 PM 42.9567 -72.5875 274° West 387 445 37,700 393 Climbing Boston Center
Fri 02:20:36 PM 42.9586 -72.7664 271° West 387 445 38,000 150 Climbing Boston Center
Fri 02:21:36 PM 42.9683 -72.9225 275° West 406 467 38,000  Level Boston Center
Fri 02:22:35 PM 42.9822 -73.0672 278° West 421 484 38,000  Level Boston Center
Fri 02:23:35 PM 42.9917 -73.2350 274° West 438 504 38,000  Level Boston Center
Fri 02:24:34 PM 42.9967 -73.3967 272° West 444 511 38,000 -50 Level Boston Center
Fri 02:25:34 PM 43.0075 -73.5617 275° West 439 505 37,900  Descending Boston Center
Fri 02:26:35 PM 43.0183 -73.7294 275° West 439 505 38,000 50 Climbing Boston Center
Fri 02:27:35 PM 43.0308 -73.8944 276° West 445 512 38,000 -50 Level Boston Center
Fri 02:28:35 PM 43.0411 -74.0594 275° West 445 512 37,900  Descending Boston Center
Fri 02:29:36 PM 43.0514 -74.2244 275° West 445 512 38,000 50 Climbing Boston Center
Fri 02:30:34 PM 43.0631 -74.3897 276° West 445 512 38,000  Level Boston Center
Fri 02:31:35 PM 43.0728 -74.5547 275° West 445 512 38,000  Level Boston Center
Fri 02:32:36 PM 43.0819 -74.7228 274° West 445 512 38,000 -50 Level Boston Center
Fri 02:33:36 PM 43.0911 -74.8825 275° West 440 506 37,900  Descending Boston Center
Fri 02:34:35 PM 43.1000 -75.0450 274° West 440 506 38,000  Climbing Boston Center
Fri 02:35:35 PM 43.1089 -75.2075 274° West 434 499 37,900  Descending Boston Center
Fri 02:36:36 PM 43.1150 -75.3697 273° West 434 499 38,000 50 Climbing Boston Center
Fri 02:37:34 PM 43.1028 -75.5258 264° West 429 494 38,000  Level Boston Center
Fri 02:38:34 PM 43.0839 -75.6811 261° West 421 484 38,000  Level Boston Center
Fri 02:39:35 PM 43.0644 -75.8394 261° West 421 484 38,000  Level Boston Center
Fri 02:40:36 PM 43.0411 -75.9914 258° West 426 490 38,000  Level Boston Center
Fri 02:41:34 PM 43.0194 -76.1464 259° West 426 490 38,000 -32 Level Boston Center
Fri 02:43:44 PM 42.9714 -76.4911 259° West 404 465 37,900  Descending Cleveland Center
Fri 02:44:44 PM 42.9519 -76.6486 260° West 415 478 38,000 50 Climbing Cleveland Center
Fri 02:45:45 PM 42.9311 -76.7803 258° West 415 478 38,000  Level Cleveland Center
Fri 02:46:44 PM 42.9089 -76.9319 259° West 410 472 38,000  Level Cleveland Center
Fri 02:47:44 PM 42.8803 -77.0781 255° West 410 472 38,000  Level Cleveland Center
Fri 02:48:45 PM 42.8364 -77.2136 246° West 410 472 38,000  Level Cleveland Center
Fri 02:49:44 PM 42.7942 -77.3489 247° West 398 458 38,000  Level Cleveland Center
Fri 02:50:45 PM 42.7500 -77.4842 246° West 398 458 38,000  Level Cleveland Center
Fri 02:51:44 PM 42.6978 -77.6422 246° West 398 458 38,000  Level Cleveland Center
Fri 02:52:44 PM 42.6492 -77.7800 244° Southwest 409 471 38,000  Level Cleveland Center
Fri 02:53:44 PM 42.6025 -77.9203 246° West 409 471 38,000  Level Cleveland Center
Fri 02:54:44 PM 42.5578 -78.0575 246° West 403 464 38,000  Level Cleveland Center
Fri 02:55:44 PM 42.5086 -78.1975 245° Southwest 403 464 38,000  Level Cleveland Center
Fri 02:56:44 PM 42.4614 -78.3372 245° Southwest 403 464 38,000  Level Cleveland Center
Fri 02:57:44 PM 42.4139 -78.4794 246° West 403 464 38,000  Level Cleveland Center
Fri 02:58:44 PM 42.3664 -78.6217 246° West 403 464 38,000  Level Cleveland Center
Fri 02:59:45 PM 42.3186 -78.7581 245° Southwest 403 464 38,000  Level Cleveland Center
Fri 03:00:44 PM 42.2667 -78.8969 243° Southwest 408 470 38,000  Level Cleveland Center
Fri 03:01:44 PM 42.2186 -79.0356 245° Southwest 408 470 38,000  Level Cleveland Center
Fri 03:02:45 PM 42.1744 -79.1794 248° West 408 470 38,000  Level Cleveland Center
Fri 03:03:44 PM 42.1281 -79.3233 247° West 413 475 38,000  Level Cleveland Center
Fri 03:04:44 PM 42.0797 -79.4642 245° Southwest 418 481 38,000  Level Cleveland Center
Fri 03:05:45 PM 42.0308 -79.6019 245° Southwest 418 481 38,000  Level Cleveland Center
Fri 03:06:45 PM 41.9778 -79.7453 244° Southwest 418 481 38,000  Level Cleveland Center
Fri 03:07:44 PM 41.9286 -79.8825 244° Southwest 418 481 38,000  Level Cleveland Center
Fri 03:08:45 PM 41.8753 -80.0200 243° Southwest 418 481 38,000  Level Cleveland Center
Fri 03:09:44 PM 41.8236 -80.1597 244° Southwest 413 475 38,000  Level Cleveland Center
Fri 03:10:44 PM 41.7803 -80.2825 245° Southwest 413 475 38,000  Level Cleveland Center
Fri 03:11:45 PM 41.7264 -80.4189 242° Southwest 413 475 38,000  Level Cleveland Center
Fri 03:12:44 PM 41.6764 -80.5553 244° Southwest 408 470 38,000  Level Cleveland Center
Fri 03:13:44 PM 41.6264 -80.6886 243° Southwest 408 470 38,000  Level Cleveland Center
Fri 03:14:44 PM 41.5761 -80.8247 244° Southwest 408 470 38,000  Level Cleveland Center
Fri 03:15:44 PM 41.5236 -80.9603 243° Southwest 408 470 38,000  Level Cleveland Center
Fri 03:16:44 PM 41.4669 -81.1069 243° Southwest 408 470 38,000  Level Cleveland Center
Fri 03:17:44 PM 41.4139 -81.2447 243° Southwest 408 470 38,000  Level Cleveland Center
Fri 03:18:44 PM 41.3631 -81.3772 243° Southwest 402 463 38,000  Level Cleveland Center
Fri 03:19:44 PM 41.3183 -81.4956 243° Southwest 402 463 38,000  Level Cleveland Center
Fri 03:20:44 PM 41.2672 -81.6328 244° Southwest 402 463 38,000  Level Cleveland Center
Fri 03:21:44 PM 41.2139 -81.7672 242° Southwest 402 463 38,000  Level Cleveland Center
Fri 03:22:44 PM 41.1622 -81.8986 242° Southwest 414 476 38,000  Level Cleveland Center
Fri 03:23:44 PM 41.1044 -82.0381 241° Southwest 425 489 38,000  Level Cleveland Center
Fri 03:24:44 PM 41.0547 -82.1692 243° Southwest 425 489 38,000  Level Cleveland Center
Fri 03:25:44 PM 40.9964 -82.3108 241° Southwest 411 473 38,000  Level Cleveland Center
Fri 03:27:27 PM 40.9303 -82.5283 248° West 397 457 38,000  Level Indianapolis Center
Fri 03:28:29 PM 40.8981 -82.6664 253° West 391 450 38,000  Level Indianapolis Center
Fri 03:29:31 PM 40.8672 -82.8072 254° West 394 453 38,000  Level Indianapolis Center
Fri 03:30:33 PM 40.8303 -82.9683 253° West 391 450 38,000  Level Indianapolis Center
Fri 03:31:35 PM 40.7989 -83.1061 253° West 388 447 38,000  Level Indianapolis Center
Fri 03:32:37 PM 40.7694 -83.2417 254° West 379 436 38,000  Level Indianapolis Center
Fri 03:33:39 PM 40.7378 -83.3753 253° West 379 436 38,000  Level Indianapolis Center
Fri 03:34:41 PM 40.7075 -83.5097 253° West 381 438 38,000  Level Indianapolis Center
Fri 03:35:44 PM 40.6756 -83.6447 253° West 383 441 38,000 -432 Level Indianapolis Center
Fri 03:36:46 PM 40.6453 -83.7772 253° West 378 435 37,100 -968 Descending Indianapolis Center
Fri 03:37:48 PM 40.6058 -83.9211 250° West 357 411 36,000 -532 Descending Indianapolis Center
Fri 03:38:50 PM 40.5731 -84.0392 250° West 344 396 36,000 -532 Level Indianapolis Center
Fri 03:39:52 PM 40.5400 -84.1600 250° West 347 399 34,900 -1,500 Descending Indianapolis Center
Fri 03:40:54 PM 40.5053 -84.2869 250° West 364 419 32,900 -1,887 Descending Indianapolis Center
Fri 03:41:56 PM 40.4694 -84.4194 250° West 379 436 31,000 -919 Descending Indianapolis Center
Fri 03:42:58 PM 40.4308 -84.5553 250° West 392 451 31,000 -726 Level Indianapolis Center
Fri 03:44:00 PM 40.3922 -84.6950 250° West 404 465 29,500 -2,032 Descending Indianapolis Center
Fri 03:45:02 PM 40.3472 -84.8558 250° West 402 463 26,800 -2,565 Descending Indianapolis Center
Fri 03:46:04 PM 40.3061 -84.9942 249° West 402 463 24,200 -2,468 Descending Indianapolis Center
Fri 03:47:06 PM 40.2667 -85.1333 250° West 408 470 21,700 -2,419 Descending Indianapolis Center
Fri 03:48:08 PM 40.2272 -85.2683 249° West 402 463 19,200 -2,371 Descending Indianapolis Center
Fri 03:49:10 PM 40.1908 -85.3986 250° West 386 444 16,800 -2,274 Descending Indianapolis Center
Fri 03:50:12 PM 40.1533 -85.5278 249° West 382 440 14,500 -2,468 Descending Indianapolis Center
Fri 03:51:14 PM 40.1117 -85.6731 249° West 361 415 11,700 -2,419 Descending Indianapolis Center
Fri 03:52:16 PM 40.0811 -85.7831 250° West 328 377 9,500 -2,129 Descending Indianapolis Center
Fri 03:53:18 PM 40.0714 -85.8803 263° West 282 325 7,300 -2,565 Descending Indianapolis Center
Fri 03:54:20 PM 40.0614 -85.9683 262° West 263 303 4,200 -2,081 Descending Indianapolis Center
Fri 03:55:22 PM 40.0519 -86.0531 262° West 250 288 3,000 -871 Descending Indianapolis Center
Fri 03:56:24 PM 40.0608 -86.1378 278° West 217 250 2,400 -435 Descending Indianapolis Center
Fri 03:57:26 PM 40.0725 -86.2008 284° West 198 228 2,100 -435 Descending Indianapolis Center
Fri 03:58:28 PM 40.0672 -86.2478 262° West 171 197 1,500 -435 Descending Indianapolis Center
Fri 03:59:30 PM 40.0278 -86.2450 177° South 164 189 1,200 -155 Descending Indianapolis Center
Fri 04:01:03 PM 40.0333 -86.2500 325° Northwest 130 150 1,100 -39 Descending Indianapolis TRACON
Fri 04:02:03 PM 40.0333 -86.2500 360° North 130 150 1,100  Level Indianapolis TRACON
Fri 04:03:45 PM 40.0333 -86.2500 360° North 130 150 1,100  Level Indianapolis TRACON
Fri 04:05:46 PM 40.0333 -86.2500 360° North 130 150 1,100  Level Indianapolis TRACON
Fri 04:07:45 PM 40.0333 -86.2500 360° North 130 150 1,100  Level Indianapolis TRACON

Login

Don't have an account? Register now (free) for customized features, flight alerts, and more!